createdAt,value
2023-02-12T00:00:52.811Z,9.10
2023-02-12T00:03:20.662Z,9.41
2023-02-12T00:05:48.470Z,10.04
2023-02-12T00:08:16.447Z,9.70
2023-02-12T00:10:44.868Z,9.54
2023-02-12T00:13:12.961Z,9.36
2023-02-12T00:15:43.325Z,9.50
2023-02-12T00:18:11.471Z,9.95
2023-02-12T00:20:39.994Z,9.53
2023-02-12T00:23:08.078Z,9.94
2023-02-12T00:25:35.917Z,9.94
2023-02-12T00:28:03.723Z,9.94
2023-02-12T00:30:31.532Z,9.91
2023-02-12T00:33:00.686Z,9.95
2023-02-12T00:35:28.537Z,10.01
2023-02-12T00:37:56.268Z,9.98
2023-02-12T00:40:24.096Z,10.15
2023-02-12T00:42:51.797Z,10.10
2023-02-12T00:45:19.694Z,10.09
2023-02-12T00:47:47.471Z,10.65
2023-02-12T00:50:16.721Z,10.74
2023-02-12T00:52:44.584Z,10.65
2023-02-12T00:55:12.374Z,11.21
2023-02-12T00:57:40.363Z,11.22
2023-02-12T01:00:09.417Z,11.02
2023-02-12T01:02:37.159Z,11.16
2023-02-12T01:05:05.214Z,11.46
2023-02-12T01:07:34.316Z,10.94
2023-02-12T01:10:02.078Z,11.13
2023-02-12T01:12:29.825Z,10.78
2023-02-12T01:14:57.612Z,10.98
2023-02-12T01:17:25.618Z,10.82
2023-02-12T01:19:58.220Z,11.24
2023-02-12T01:22:26.343Z,10.86
2023-02-12T01:24:55.464Z,11.15
2023-02-12T01:27:23.208Z,11.35
2023-02-12T01:29:51.142Z,11.16
2023-02-12T01:32:18.976Z,10.89
2023-02-12T01:34:46.779Z,10.84
2023-02-12T01:37:14.509Z,10.95
2023-02-12T01:39:42.250Z,11.31
2023-02-12T01:42:13.902Z,10.63
2023-02-12T01:44:46.580Z,10.64
2023-02-12T01:47:18.478Z,10.71
2023-02-12T01:49:49.844Z,10.48
2023-02-12T01:52:23.735Z,10.09
2023-02-12T01:54:56.161Z,10.64
2023-02-12T01:57:29.246Z,10.12
2023-02-12T01:59:59.595Z,10.80
2023-02-12T02:02:27.957Z,10.98
2023-02-12T02:05:01.060Z,10.56
2023-02-12T02:07:29.642Z,10.43
2023-02-12T02:09:58.322Z,10.33
2023-02-12T02:12:45.647Z,10.42
2023-02-12T02:15:13.699Z,10.72
2023-02-12T02:17:54.221Z,10.94
2023-02-12T02:21:08.852Z,11.41
2023-02-12T02:24:17.847Z,11.52
2023-02-12T02:26:59.242Z,11.63
2023-02-12T02:30:00.363Z,11.41
2023-02-12T02:32:32.767Z,11.44
2023-02-12T02:35:06.043Z,10.51
2023-02-12T02:37:40.773Z,10.49
2023-02-12T02:40:12.755Z,10.07
2023-02-12T02:42:45.940Z,10.62
2023-02-12T02:45:16.871Z,10.45
2023-02-12T02:47:49.378Z,10.35
2023-02-12T02:50:20.471Z,10.66
2023-02-12T02:52:51.392Z,10.39
2023-02-12T02:55:21.629Z,10.27
2023-02-12T02:57:56.118Z,10.25
2023-02-12T03:00:28.918Z,10.48
2023-02-12T03:03:03.260Z,10.63
2023-02-12T03:05:34.612Z,10.02
2023-02-12T03:08:09.749Z,10.24
2023-02-12T03:10:42.256Z,10.49
2023-02-12T03:13:13.404Z,9.98
2023-02-12T03:15:46.179Z,10.12
2023-02-12T03:18:21.137Z,10.12
2023-02-12T03:20:55.002Z,10.06
2023-02-12T03:23:27.011Z,10.10
2023-02-12T03:25:59.203Z,10.37
2023-02-12T03:28:29.817Z,9.53
2023-02-12T03:31:08.425Z,10.24
2023-02-12T03:33:50.960Z,9.83
2023-02-12T03:36:29.192Z,10.53
2023-02-12T03:39:05.455Z,9.90
2023-02-12T03:41:41.340Z,9.89
2023-02-12T03:44:16.798Z,10.37
2023-02-12T03:46:49.924Z,10.46
2023-02-12T03:49:25.421Z,10.01
2023-02-12T03:51:53.910Z,10.22
2023-02-12T03:54:23.071Z,9.62
2023-02-12T03:56:56.358Z,9.76
2023-02-12T03:59:25.898Z,9.99
2023-02-12T04:01:55.405Z,10.31
2023-02-12T04:04:25.874Z,10.33
2023-02-12T04:06:55.034Z,10.69
2023-02-12T04:09:24.808Z,10.38
2023-02-12T04:12:08.841Z,10.11
2023-02-12T04:14:45.572Z,10.16
2023-02-12T04:17:21.025Z,10.37
2023-02-12T04:20:00.141Z,10.52
2023-02-12T04:22:39.085Z,10.64
2023-02-12T04:25:19.314Z,10.60
2023-02-12T04:27:53.369Z,10.59
2023-02-12T04:30:25.342Z,10.66
2023-02-12T04:32:56.577Z,10.55
2023-02-12T04:35:31.038Z,10.42
2023-02-12T04:38:03.170Z,10.72
2023-02-12T04:40:32.377Z,10.63
2023-02-12T04:43:00.157Z,10.01
2023-02-12T04:45:30.556Z,10.22
2023-02-12T04:47:58.897Z,10.46
2023-02-12T04:50:37.120Z,10.31
2023-02-12T04:53:04.899Z,10.30
2023-02-12T04:55:32.606Z,10.27
2023-02-12T04:58:00.341Z,10.22
2023-02-12T05:00:28.246Z,10.55
2023-02-12T05:02:55.985Z,10.34
2023-02-12T05:05:24.182Z,10.02
2023-02-12T05:07:53.310Z,10.02
2023-02-12T05:10:21.291Z,9.85
2023-02-12T05:12:49.051Z,10.25
2023-02-12T05:15:16.947Z,10.12
2023-02-12T05:17:45.741Z,10.17
2023-02-12T05:20:14.362Z,10.18
2023-02-12T05:22:42.124Z,10.46
2023-02-12T05:25:11.750Z,10.13
2023-02-12T05:27:39.602Z,10.13
2023-02-12T05:30:09.557Z,10.03
2023-02-12T05:32:37.791Z,9.91
2023-02-12T05:35:06.449Z,9.51
2023-02-12T05:37:36.312Z,9.74
2023-02-12T05:40:05.426Z,10.09
2023-02-12T05:42:34.518Z,10.27
2023-02-12T05:45:02.246Z,9.77
2023-02-12T05:47:30.007Z,10.14
2023-02-12T05:49:58.116Z,10.04
2023-02-12T05:52:26.218Z,9.79
2023-02-12T05:54:54.083Z,9.77
2023-02-12T05:57:21.827Z,9.71
2023-02-12T05:59:50.920Z,9.97
2023-02-12T06:02:18.635Z,10.31
2023-02-12T06:04:48.527Z,10.13
2023-02-12T06:07:16.422Z,10.18
2023-02-12T06:09:44.198Z,10.12
2023-02-12T06:12:11.967Z,10.20
2023-02-12T06:14:41.985Z,10.58
2023-02-12T06:17:11.083Z,10.29
2023-02-12T06:19:38.814Z,10.25
2023-02-12T06:22:06.646Z,9.89
2023-02-12T06:24:34.549Z,10.49
2023-02-12T06:27:02.356Z,10.31
2023-02-12T06:29:30.295Z,10.08
2023-02-12T06:31:58.097Z,9.98
2023-02-12T06:34:27.298Z,10.16
2023-02-12T06:36:55.077Z,10.04
2023-02-12T06:39:22.827Z,10.02
2023-02-12T06:41:50.587Z,10.03
2023-02-12T06:44:18.394Z,9.84
2023-02-12T06:46:46.232Z,10.14
2023-02-12T06:49:15.060Z,9.96
2023-02-12T06:51:44.192Z,10.34
2023-02-12T06:54:16.964Z,10.08
2023-02-12T06:56:45.263Z,10.43
2023-02-12T06:59:15.597Z,10.72
2023-02-12T07:01:43.658Z,10.78
2023-02-12T07:04:12.228Z,10.12
2023-02-12T07:06:40.141Z,9.95
2023-02-12T07:09:09.252Z,10.35
2023-02-12T07:11:38.513Z,10.22
2023-02-12T07:14:07.274Z,10.35
2023-02-12T07:16:35.229Z,10.02
2023-02-12T07:19:03.037Z,10.06
2023-02-12T07:21:32.027Z,10.22
2023-02-12T07:23:59.823Z,10.25
2023-02-12T07:26:29.241Z,10.71
2023-02-12T07:28:59.454Z,10.68
2023-02-12T07:31:27.374Z,11.07
2023-02-12T07:33:56.200Z,10.19
2023-02-12T07:36:25.566Z,9.93
2023-02-12T07:38:53.285Z,10.85
2023-02-12T07:41:22.652Z,10.68
2023-02-12T07:43:56.795Z,10.75
2023-02-12T07:46:29.696Z,10.91
2023-02-12T07:48:58.711Z,10.98
2023-02-12T07:51:27.515Z,10.78
2023-02-12T07:53:55.795Z,11.02
2023-02-12T07:56:25.384Z,10.68
2023-02-12T07:58:54.820Z,10.87
2023-02-12T08:01:24.430Z,10.85
2023-02-12T08:03:52.583Z,10.81
2023-02-12T08:06:23.021Z,10.77
2023-02-12T08:08:52.603Z,10.96
2023-02-12T08:11:20.337Z,10.81
2023-02-12T08:13:48.308Z,10.79
2023-02-12T08:16:20.337Z,11.19
2023-02-12T08:18:48.493Z,11.17
2023-02-12T08:21:18.473Z,10.86
2023-02-12T08:23:49.860Z,11.20
2023-02-12T08:26:19.776Z,10.58
2023-02-12T08:28:50.710Z,10.64
2023-02-12T08:31:22.318Z,10.91
2023-02-12T08:33:52.110Z,10.84
2023-02-12T08:36:22.182Z,11.30
2023-02-12T08:38:50.557Z,11.26
2023-02-12T08:41:21.353Z,11.17
2023-02-12T08:43:50.372Z,10.90
2023-02-12T08:46:21.750Z,11.72
2023-02-12T08:48:49.914Z,11.34
2023-02-12T08:51:20.233Z,11.61
2023-02-12T08:53:52.429Z,11.18
2023-02-12T08:56:20.452Z,11.09
2023-02-12T08:58:48.860Z,11.09
2023-02-12T09:01:19.579Z,11.49
2023-02-12T09:03:48.144Z,10.89
2023-02-12T09:06:16.736Z,11.02
2023-02-12T09:08:44.877Z,11.07
2023-02-12T09:11:16.488Z,11.43
2023-02-12T09:13:44.769Z,11.21
2023-02-12T09:16:13.861Z,11.80
2023-02-12T09:18:43.248Z,11.20
2023-02-12T09:21:13.555Z,10.98
2023-02-12T09:23:41.840Z,11.40
2023-02-12T09:26:12.076Z,10.75
2023-02-12T09:28:40.681Z,10.70
2023-02-12T09:31:09.572Z,11.19
2023-02-12T09:33:37.934Z,11.60
2023-02-12T09:36:10.273Z,11.16
2023-02-12T09:38:38.520Z,11.59
2023-02-12T09:41:31.411Z,11.60
2023-02-12T09:44:05.947Z,11.57
2023-02-12T09:46:39.253Z,11.32
2023-02-12T09:49:11.346Z,11.21
2023-02-12T09:51:43.365Z,11.44
2023-02-12T09:54:15.497Z,12.25
2023-02-12T09:56:47.423Z,12.30
2023-02-12T09:59:26.710Z,12.30
2023-02-12T10:01:54.491Z,11.74
2023-02-12T10:04:23.811Z,11.91
2023-02-12T10:07:02.914Z,12.41
2023-02-12T10:09:53.289Z,12.80
2023-02-12T10:12:27.810Z,12.64
2023-02-12T10:15:16.379Z,12.41
2023-02-12T10:17:50.210Z,12.40
2023-02-12T10:20:47.169Z,12.58
2023-02-12T10:23:31.029Z,12.55
2023-02-12T10:26:00.841Z,12.42
2023-02-12T10:28:32.380Z,12.24
2023-02-12T10:31:03.325Z,12.23
2023-02-12T10:33:37.787Z,12.64
2023-02-12T10:36:17.920Z,12.49
2023-02-12T10:38:51.480Z,12.14
2023-02-12T10:41:19.308Z,12.40
2023-02-12T10:43:47.051Z,11.92
2023-02-12T10:46:16.405Z,12.38
2023-02-12T10:48:48.345Z,12.23
2023-02-12T10:51:46.785Z,13.09
2023-02-12T10:54:38.311Z,12.20
2023-02-12T10:57:11.129Z,12.51
2023-02-12T10:59:39.011Z,12.64
2023-02-12T11:02:27.746Z,12.89
2023-02-12T11:04:58.032Z,12.18
2023-02-12T11:07:27.475Z,12.73
2023-02-12T11:09:58.188Z,12.49
2023-02-12T11:12:32.331Z,12.92
2023-02-12T11:15:01.797Z,12.45
2023-02-12T11:17:36.034Z,12.64
2023-02-12T11:20:21.734Z,12.74
2023-02-12T11:22:55.166Z,12.66
2023-02-12T11:25:25.347Z,13.18
2023-02-12T11:28:11.791Z,12.86
2023-02-12T11:30:50.786Z,12.60
2023-02-12T11:33:24.768Z,12.95
2023-02-12T11:35:55.657Z,12.93
2023-02-12T11:38:33.132Z,12.39
2023-02-12T11:41:08.382Z,13.18
2023-02-12T11:43:39.602Z,12.84
2023-02-12T11:46:09.432Z,12.78
2023-02-12T11:48:41.022Z,12.74
2023-02-12T11:51:18.606Z,12.73
2023-02-12T11:53:50.576Z,13.25
2023-02-12T11:56:20.334Z,12.80
2023-02-12T11:58:49.602Z,12.81
2023-02-12T12:01:22.025Z,12.70
2023-02-12T12:04:00.137Z,12.66
2023-02-12T12:06:35.353Z,12.39
2023-02-12T12:09:13.790Z,12.97
2023-02-12T12:11:52.430Z,13.06
2023-02-12T12:14:27.137Z,12.60
2023-02-12T12:17:17.737Z,12.71
2023-02-12T12:19:56.022Z,12.78
2023-02-12T12:22:37.730Z,12.72
2023-02-12T12:25:17.271Z,12.37
2023-02-12T12:28:09.682Z,12.05
2023-02-12T12:31:00.196Z,12.62
2023-02-12T12:33:38.704Z,12.79
2023-02-12T12:36:47.037Z,12.81
2023-02-12T12:39:28.127Z,12.71
2023-02-12T12:42:12.655Z,13.37
2023-02-12T12:44:58.434Z,12.98
2023-02-12T12:47:33.993Z,12.76
2023-02-12T12:50:19.219Z,12.76
2023-02-12T12:53:09.970Z,12.91
2023-02-12T12:56:05.864Z,13.36
2023-02-12T12:58:53.675Z,13.84
2023-02-12T13:01:50.356Z,14.08
2023-02-12T13:04:46.961Z,13.49
2023-02-12T13:07:27.449Z,13.32
2023-02-12T13:10:15.037Z,13.46
2023-02-12T13:12:54.452Z,13.68
2023-02-12T13:15:32.652Z,14.26
2023-02-12T13:18:14.528Z,13.78
2023-02-12T13:20:52.305Z,14.18
2023-02-12T13:23:30.056Z,13.61
2023-02-12T13:26:06.037Z,13.84
2023-02-12T13:28:37.285Z,14.34
2023-02-12T13:31:30.078Z,13.82
2023-02-12T13:34:01.018Z,13.77
2023-02-12T13:36:28.860Z,13.97
2023-02-12T13:39:02.324Z,14.49
2023-02-12T13:41:30.921Z,14.18
2023-02-12T13:44:07.449Z,14.29
2023-02-12T13:46:48.038Z,14.13
2023-02-12T13:49:27.326Z,13.98
2023-02-12T13:52:04.140Z,14.09
2023-02-12T13:54:48.330Z,14.23
2023-02-12T13:57:18.456Z,14.41
2023-02-12T13:59:50.152Z,14.36
2023-02-12T14:02:43.788Z,14.07
2023-02-12T14:05:32.142Z,14.40
2023-02-12T14:08:03.571Z,14.80
2023-02-12T14:10:34.140Z,16.02
2023-02-12T14:13:22.215Z,17.32
2023-02-12T14:15:52.513Z,16.32
2023-02-12T14:18:38.473Z,16.44
2023-02-12T14:21:42.198Z,16.22
2023-02-12T14:24:49.754Z,14.86
2023-02-12T14:27:47.087Z,14.20
2023-02-12T14:30:31.500Z,13.82
2023-02-12T14:33:26.219Z,14.46
2023-02-12T14:36:40.187Z,14.35
2023-02-12T14:39:29.365Z,14.30
2023-02-12T14:42:17.918Z,14.28
2023-02-12T14:44:49.638Z,13.72
2023-02-12T14:47:47.104Z,13.64
2023-02-12T14:50:22.971Z,13.32
2023-02-12T14:52:55.473Z,13.68
2023-02-12T14:55:27.640Z,13.52
2023-02-12T14:58:02.096Z,13.55
2023-02-12T15:00:35.887Z,13.52
2023-02-12T15:03:17.107Z,13.16
2023-02-12T15:05:50.242Z,13.76
2023-02-12T15:08:27.799Z,13.48
2023-02-12T15:11:00.645Z,13.63
2023-02-12T15:13:31.211Z,13.24
2023-02-12T15:16:05.394Z,13.39
2023-02-12T15:18:45.885Z,13.18
2023-02-12T15:21:20.966Z,13.46
2023-02-12T15:23:59.424Z,13.27
2023-02-12T15:26:29.790Z,13.43
2023-02-12T15:28:57.729Z,13.34
2023-02-12T15:31:30.863Z,13.40
2023-02-12T15:34:00.784Z,13.53
2023-02-12T15:36:31.291Z,13.14
2023-02-12T15:39:02.432Z,12.79
2023-02-12T15:41:37.542Z,13.27
2023-02-12T15:44:19.637Z,13.34
2023-02-12T15:47:04.706Z,12.55
2023-02-12T15:49:38.254Z,13.30
2023-02-12T15:52:10.533Z,12.99
2023-02-12T15:54:39.435Z,13.06
2023-02-12T15:57:19.622Z,13.37
2023-02-12T15:59:51.659Z,13.07
2023-02-12T16:02:23.551Z,12.24
2023-02-12T16:04:52.030Z,12.49
2023-02-12T16:07:20.551Z,12.36
2023-02-12T16:09:50.063Z,12.82
2023-02-12T16:12:22.599Z,12.57
2023-02-12T16:14:53.868Z,12.63
2023-02-12T16:17:29.454Z,13.05
2023-02-12T16:19:59.382Z,12.69
2023-02-12T16:22:34.143Z,12.81
2023-02-12T16:25:02.778Z,13.45
2023-02-12T16:27:32.793Z,12.87
2023-02-12T16:30:03.821Z,13.24
2023-02-12T16:32:36.703Z,12.77
2023-02-12T16:35:08.325Z,12.86
2023-02-12T16:37:48.277Z,12.40
2023-02-12T16:40:27.339Z,12.09
2023-02-12T16:43:00.423Z,12.14
2023-02-12T16:45:39.100Z,12.52
2023-02-12T16:48:23.265Z,12.87
2023-02-12T16:50:53.588Z,12.86
2023-02-12T16:53:34.596Z,12.93
2023-02-12T16:56:03.758Z,12.21
2023-02-12T16:58:31.666Z,12.91
2023-02-12T17:01:03.822Z,12.76
2023-02-12T17:03:33.361Z,12.38
2023-02-12T17:06:01.210Z,12.52
2023-02-12T17:08:28.966Z,12.98
2023-02-12T17:10:56.735Z,12.98
2023-02-12T17:13:24.472Z,12.84
2023-02-12T17:15:55.397Z,12.68
2023-02-12T17:18:24.204Z,12.55
2023-02-12T17:20:56.093Z,12.79
2023-02-12T17:23:24.602Z,12.70
2023-02-12T17:25:52.844Z,12.71
2023-02-12T17:28:21.118Z,12.75
2023-02-12T17:30:48.974Z,12.66
2023-02-12T17:33:17.806Z,12.93
2023-02-12T17:35:45.701Z,12.73
2023-02-12T17:38:14.829Z,12.23
2023-02-12T17:40:42.817Z,12.38
2023-02-12T17:43:10.690Z,12.89
2023-02-12T17:45:42.997Z,13.11
2023-02-12T17:48:11.447Z,12.71
2023-02-12T17:50:39.619Z,12.79
2023-02-12T17:53:08.279Z,12.98
2023-02-12T17:55:39.739Z,12.49
2023-02-12T17:58:08.713Z,12.20
2023-02-12T18:00:36.570Z,12.59
2023-02-12T18:03:04.306Z,12.24
2023-02-12T18:05:32.288Z,12.59
2023-02-12T18:08:02.268Z,12.12
2023-02-12T18:10:30.096Z,12.03
2023-02-12T18:12:59.185Z,11.39
2023-02-12T18:15:26.908Z,11.89
2023-02-12T18:17:54.661Z,12.30
2023-02-12T18:20:22.642Z,11.71
2023-02-12T18:22:51.055Z,11.69
2023-02-12T18:25:19.035Z,11.35
2023-02-12T18:27:46.868Z,11.24
2023-02-12T18:30:16.883Z,11.56
2023-02-12T18:32:44.571Z,11.26
2023-02-12T18:35:12.642Z,11.77
2023-02-12T18:37:43.262Z,11.61
2023-02-12T18:40:12.278Z,11.90
2023-02-12T18:42:40.076Z,11.55
2023-02-12T18:45:08.684Z,11.57
2023-02-12T18:47:37.905Z,11.23
2023-02-12T18:50:06.210Z,11.27
2023-02-12T18:52:34.014Z,11.38
2023-02-12T18:55:01.745Z,11.19
2023-02-12T18:57:30.260Z,11.51
2023-02-12T18:59:58.139Z,11.35
2023-02-12T19:02:25.965Z,11.72
2023-02-12T19:04:55.147Z,11.71
2023-02-12T19:07:22.967Z,11.82
2023-02-12T19:09:51.066Z,11.79
2023-02-12T19:12:18.801Z,11.22
2023-02-12T19:14:46.758Z,11.37
2023-02-12T19:17:14.494Z,11.31
2023-02-12T19:19:42.221Z,11.43
2023-02-12T19:22:11.363Z,11.24
2023-02-12T19:24:46.695Z,11.30
2023-02-12T19:27:15.143Z,11.79
2023-02-12T19:29:43.129Z,11.69
2023-02-12T19:32:10.953Z,11.27
2023-02-12T19:34:39.275Z,11.48
2023-02-12T19:37:07.915Z,11.53
2023-02-12T19:39:37.300Z,11.54
2023-02-12T19:42:05.263Z,11.38
2023-02-12T19:44:33.431Z,11.31
2023-02-12T19:47:01.160Z,11.13
2023-02-12T19:49:30.205Z,11.27
2023-02-12T19:51:57.986Z,11.07
2023-02-12T19:54:26.308Z,11.49
2023-02-12T19:56:56.288Z,11.09
2023-02-12T19:59:25.906Z,11.36
2023-02-12T20:01:54.335Z,11.01
2023-02-12T20:04:23.862Z,11.25
2023-02-12T20:06:52.374Z,11.10
2023-02-12T20:09:21.106Z,11.42
2023-02-12T20:11:48.941Z,11.15
2023-02-12T20:14:18.092Z,10.91
2023-02-12T20:16:47.538Z,11.28
2023-02-12T20:19:17.500Z,10.65
2023-02-12T20:21:46.276Z,11.47
2023-02-12T20:24:14.023Z,10.78
2023-02-12T20:26:41.767Z,11.41
2023-02-12T20:29:09.495Z,11.18
2023-02-12T20:31:38.954Z,11.22
2023-02-12T20:34:08.837Z,11.08
2023-02-12T20:36:39.007Z,11.61
2023-02-12T20:39:08.280Z,11.69
2023-02-12T20:41:37.101Z,11.27
2023-02-12T20:44:05.490Z,11.27
2023-02-12T20:46:36.011Z,11.16
2023-02-12T20:49:05.267Z,11.70
2023-02-12T20:51:33.048Z,11.78
2023-02-12T20:54:01.851Z,11.46
2023-02-12T20:56:32.043Z,11.76
2023-02-12T20:59:00.216Z,11.84
2023-02-12T21:01:31.692Z,11.91
2023-02-12T21:04:03.385Z,11.30
2023-02-12T21:06:33.155Z,11.06
2023-02-12T21:09:02.399Z,11.35
2023-02-12T21:11:30.937Z,11.48
2023-02-12T21:14:18.463Z,11.84
2023-02-12T21:16:48.117Z,11.27
2023-02-12T21:19:16.044Z,11.32
2023-02-12T21:21:46.120Z,11.52
2023-02-12T21:24:16.210Z,11.72
2023-02-12T21:26:44.131Z,11.67
2023-02-12T21:29:11.962Z,11.56
2023-02-12T21:31:41.758Z,11.96
2023-02-12T21:34:13.641Z,11.51
2023-02-12T21:36:45.107Z,11.44
2023-02-12T21:39:16.343Z,11.14
2023-02-12T21:41:44.266Z,11.13
2023-02-12T21:44:15.013Z,11.26
2023-02-12T21:46:43.033Z,11.24
2023-02-12T21:49:12.497Z,10.89
2023-02-12T21:51:46.712Z,11.41
2023-02-12T21:54:16.612Z,11.24
2023-02-12T21:56:48.675Z,11.08
2023-02-12T21:59:17.064Z,11.20
2023-02-12T22:01:46.522Z,10.94
2023-02-12T22:04:14.549Z,10.94
2023-02-12T22:06:44.223Z,10.98
2023-02-12T22:09:13.258Z,11.11
2023-02-12T22:11:43.332Z,11.02
2023-02-12T22:14:14.201Z,10.85
2023-02-12T22:16:42.279Z,11.04
2023-02-12T22:19:10.609Z,10.77
2023-02-12T22:21:40.725Z,11.22
2023-02-12T22:24:11.831Z,11.12
2023-02-12T22:26:39.640Z,11.36
2023-02-12T22:29:10.809Z,11.21
2023-02-12T22:31:40.110Z,11.59
2023-02-12T22:34:12.702Z,11.39
2023-02-12T22:36:41.750Z,10.98
2023-02-12T22:39:11.321Z,11.23
2023-02-12T22:41:39.097Z,11.12
2023-02-12T22:44:08.207Z,10.91
2023-02-12T22:46:36.190Z,11.26
2023-02-12T22:49:04.212Z,11.54
2023-02-12T22:51:33.402Z,11.30
2023-02-12T22:54:01.875Z,11.33
2023-02-12T22:56:31.056Z,11.48
2023-02-12T22:59:00.539Z,11.02
2023-02-12T23:01:31.112Z,11.02
2023-02-12T23:03:59.021Z,11.16
2023-02-12T23:06:29.243Z,11.10
2023-02-12T23:08:59.016Z,11.13
2023-02-12T23:11:28.059Z,11.00
2023-02-12T23:13:55.890Z,10.79
2023-02-12T23:16:24.108Z,10.89
2023-02-12T23:18:57.444Z,10.58
2023-02-12T23:21:26.096Z,10.73
2023-02-12T23:23:54.065Z,10.67
2023-02-12T23:26:22.174Z,10.17
2023-02-12T23:28:50.014Z,10.61
2023-02-12T23:31:17.892Z,10.36
2023-02-12T23:33:45.822Z,10.72
2023-02-12T23:36:15.192Z,10.59
2023-02-12T23:38:42.970Z,9.64
2023-02-12T23:41:10.921Z,10.33
2023-02-12T23:43:38.676Z,10.46
2023-02-12T23:46:06.825Z,10.49
2023-02-12T23:48:34.575Z,10.32
2023-02-12T23:51:02.343Z,10.32
2023-02-12T23:53:31.490Z,10.48
2023-02-12T23:55:59.341Z,10.64
2023-02-12T23:58:27.183Z,10.92
